Terminal Aerodrome Forecast
Issued by NWS Jacksonville, FL

Home | Current Version | Previous Version | Text Only | Print | Product List | Glossary On
Versions: 1 2 3 4 5 6 7 8 9 10 11 12 13 14 15 16 17 18 19 20
000
FTUS42 KJAX 221100
TAFGNV
TAF
KGNV 221137Z 2212/2312 00000KT 4SM BR BKN250
     FM221300 VRB02KT P6SM BKN250
     FM221800 14006KT P6SM FEW100 BKN250
     FM230200 17002KT P6SM VCTS SCT035CB OVC250=

USA.gov is the U.S. government's official web portal to all federal, state and local government web resources and services.